General Lucio Blanco International Airport
MMRX : now visible

Airfield :











YOU CAN JOIN US ON...

 
LOGIN :

Register | Disclaimer

   EN    FR    IT 

 









Legend :    VFR   Marginal VFR   IFR   Intensive IFR   Very Intensive IFR
Visi :
Ceiling :
>= 8 km
>= 3000ft
5 to 8 km
1000 to 3000 ft
1500m to 5 km
500 to 1000 ft
800 to 1500m
200 to 500 ft
< 800m
< 200 ft
Symbols :   Thunderstorms  Fog  Heavy snow  Heavy precipitations  Wind > 20 kt






- Airport Elevation : 139 ft
- IATA code : REX


MMRX - General Lucio Blanco International

CURRENT METAR :
  • 101444Z 32009KT 1SM DZ BR VV005 14/12 A2999 RMK SLP155 52050 941 60015 8//// DZ INTMTETE

EXPIRED METARs :
  • 101406Z 30008KT 1SM DZ BR VV005 18/16 A2995 RMK 8//// DZB1400
  • 101241Z 00000KT 5SM BKN010 22/19 A2989 RMK 8/500 HZY PRESRR

TAF COR TAF MMRX
Valid from the 10 at 06:00 until the 11 at 06:00 UTC


101347Z 1006/1106 16015KT P6SM OVC012
FM101000 34012KT 1SM BR HZ OVC006
TEMPO 1014/1018 1/2SM DZ FG BKN003
FM101800 35016KT 6SM HZ BKN010 OVC070
TEMPO 1018/1022 4SM -RA
FM102200 35010KT 5SM HZ BKN012 OVC070
PROB40 1102/1106 4SM -RA BKN010



MET'MAP, your aeronautical weather chart ! - Copyright ORBIFLY December 2007 - Disclaimer

ORBIFLY MET'MAP TEAM :

Programming & Development : Alexandra Zaïnal
Concept & original design : Baudouin d'Aumeries
Assistance for programming : Marc-Olivier Méhu
Technical & hardware support : Manuel Goepfert

Contact : metmap@orbifly.com




SOURCES & CREDITS :

   NOAA       Earth
Advisory